sensor_id;sensor_type;location;lat;lon;timestamp;pressure;altitude;pressure_sealevel;temperature;humidity
74708;BME280;63360;50.104;8.074;2023-03-31T00:01:49;96414.69;;;8.59;100.00
74708;BME280;63360;50.104;8.074;2023-03-31T00:04:18;96410.91;;;8.47;100.00
74708;BME280;63360;50.104;8.074;2023-03-31T00:06:49;96406.66;;;8.43;100.00
74708;BME280;63360;50.104;8.074;2023-03-31T00:09:20;96403.28;;;8.42;100.00
74708;BME280;63360;50.104;8.074;2023-03-31T00:11:50;96394.75;;;8.42;100.00
74708;BME280;63360;50.104;8.074;2023-03-31T00:14:19;96401.91;;;8.45;100.00
74708;BME280;63360;50.104;8.074;2023-03-31T00:16:46;96390.19;;;8.39;100.00
74708;BME280;63360;50.104;8.074;2023-03-31T00:19:13;96374.03;;;8.33;100.00
74708;BME280;63360;50.104;8.074;2023-03-31T00:21:47;96368.72;;;8.30;100.00
74708;BME280;63360;50.104;8.074;2023-03-31T00:24:14;96359.75;;;8.27;100.00
74708;BME280;63360;50.104;8.074;2023-03-31T00:26:42;96366.59;;;8.32;100.00
74708;BME280;63360;50.104;8.074;2023-03-31T00:29:11;96360.63;;;8.31;100.00
74708;BME280;63360;50.104;8.074;2023-03-31T00:31:37;96356.06;;;8.28;100.00
74708;BME280;63360;50.104;8.074;2023-03-31T00:34:05;96365.06;;;8.31;100.00
74708;BME280;63360;50.104;8.074;2023-03-31T00:36:31;96363.84;;;8.28;100.00
74708;BME280;63360;50.104;8.074;2023-03-31T00:39:04;96356.06;;;8.28;100.00
74708;BME280;63360;50.104;8.074;2023-03-31T00:41:35;96349.50;;;8.31;100.00
74708;BME280;63360;50.104;8.074;2023-03-31T00:47:04;96328.47;;;8.32;100.00
74708;BME280;63360;50.104;8.074;2023-03-31T00:49:44;96321.03;;;8.22;100.00
74708;BME280;63360;50.104;8.074;2023-03-31T00:52:17;96319.03;;;8.28;100.00
74708;BME280;63360;50.104;8.074;2023-03-31T00:54:49;96312.59;;;8.25;100.00
74708;BME280;63360;50.104;8.074;2023-03-31T00:57:16;96306.38;;;8.26;100.00
74708;BME280;63360;50.104;8.074;2023-03-31T00:59:48;96306.84;;;8.28;100.00
74708;BME280;63360;50.104;8.074;2023-03-31T01:02:16;96299.06;;;8.20;100.00
74708;BME280;63360;50.104;8.074;2023-03-31T01:04:51;96294.03;;;8.32;100.00
74708;BME280;63360;50.104;8.074;2023-03-31T01:07:27;96282.59;;;8.24;100.00
74708;BME280;63360;50.104;8.074;2023-03-31T01:09:57;96283.16;;;8.38;100.00
74708;BME280;63360;50.104;8.074;2023-03-31T01:12:26;96275.13;;;8.31;100.00
74708;BME280;63360;50.104;8.074;2023-03-31T01:14:53;96269.81;;;8.28;100.00
74708;BME280;63360;50.104;8.074;2023-03-31T01:17:21;96272.69;;;8.26;100.00
74708;BME280;63360;50.104;8.074;2023-03-31T01:20:02;96269.00;;;8.36;100.00
74708;BME280;63360;50.104;8.074;2023-03-31T01:28:54;96247.06;;;8.33;100.00
74708;BME280;63360;50.104;8.074;2023-03-31T01:40:53;96221.50;;;8.32;100.00
74708;BME280;63360;50.104;8.074;2023-03-31T01:44:02;96211.28;;;8.35;100.00
74708;BME280;63360;50.104;8.074;2023-03-31T01:46:35;96201.03;;;8.39;100.00
74708;BME280;63360;50.104;8.074;2023-03-31T01:49:34;96190.41;;;8.32;100.00
74708;BME280;63360;50.104;8.074;2023-03-31T01:52:16;96194.78;;;8.40;100.00
74708;BME280;63360;50.104;8.074;2023-03-31T01:54:49;96188.47;;;8.49;100.00
74708;BME280;63360;50.104;8.074;2023-03-31T01:57:34;96176.50;;;8.36;100.00
74708;BME280;63360;50.104;8.074;2023-03-31T02:00:13;96170.44;;;8.32;100.00
74708;BME280;63360;50.104;8.074;2023-03-31T02:02:59;96169.16;;;8.38;100.00
74708;BME280;63360;50.104;8.074;2023-03-31T02:05:35;96161.09;;;8.40;100.00
74708;BME280;63360;50.104;8.074;2023-03-31T02:08:07;96154.69;;;8.37;100.00
74708;BME280;63360;50.104;8.074;2023-03-31T02:10:38;96159.84;;;8.46;100.00
74708;BME280;63360;50.104;8.074;2023-03-31T02:13:07;96161.22;;;8.43;100.00
74708;BME280;63360;50.104;8.074;2023-03-31T02:15:40;96155.09;;;8.48;100.00
74708;BME280;63360;50.104;8.074;2023-03-31T02:18:10;96147.31;;;8.48;100.00
74708;BME280;63360;50.104;8.074;2023-03-31T02:20:41;96128.84;;;8.49;100.00
74708;BME280;63360;50.104;8.074;2023-03-31T02:23:09;96140.59;;;8.68;100.00
74708;BME280;63360;50.104;8.074;2023-03-31T02:25:42;96146.72;;;8.84;100.00
74708;BME280;63360;50.104;8.074;2023-03-31T02:28:20;96134.91;;;8.74;100.00
74708;BME280;63360;50.104;8.074;2023-03-31T02:33:39;96128.66;;;8.54;100.00
74708;BME280;63360;50.104;8.074;2023-03-31T02:36:06;96133.97;;;8.58;100.00
74708;BME280;63360;50.104;8.074;2023-03-31T02:38:37;96123.84;;;8.44;100.00
74708;BME280;63360;50.104;8.074;2023-03-31T02:41:06;96114.44;;;8.40;100.00
74708;BME280;63360;50.104;8.074;2023-03-31T02:43:33;96110.66;;;8.37;100.00
74708;BME280;63360;50.104;8.074;2023-03-31T02:45:59;96097.75;;;8.29;100.00
74708;BME280;63360;50.104;8.074;2023-03-31T02:48:29;96089.94;;;8.37;100.00
74708;BME280;63360;50.104;8.074;2023-03-31T02:53:33;96087.38;;;8.29;100.00
74708;BME280;63360;50.104;8.074;2023-03-31T02:56:21;96066.91;;;8.36;100.00
74708;BME280;63360;50.104;8.074;2023-03-31T03:01:40;96026.34;;;8.19;100.00
74708;BME280;63360;50.104;8.074;2023-03-31T03:12:32;96017.44;;;8.08;100.00
74708;BME280;63360;50.104;8.074;2023-03-31T03:17:51;96022.66;;;8.00;100.00
74708;BME280;63360;50.104;8.074;2023-03-31T03:20:20;96026.31;;;7.99;100.00
74708;BME280;63360;50.104;8.074;2023-03-31T03:22:46;96006.13;;;7.92;100.00
74708;BME280;63360;50.104;8.074;2023-03-31T03:25:14;95966.50;;;7.91;100.00
74708;BME280;63360;50.104;8.074;2023-03-31T03:27:42;95993.84;;;8.01;100.00
74708;BME280;63360;50.104;8.074;2023-03-31T03:30:11;95986.34;;;7.87;100.00
74708;BME280;63360;50.104;8.074;2023-03-31T03:32:37;95989.25;;;7.86;100.00
74708;BME280;63360;50.104;8.074;2023-03-31T03:35:05;95998.97;;;7.89;100.00
74708;BME280;63360;50.104;8.074;2023-03-31T03:37:32;95982.25;;;7.86;100.00
74708;BME280;63360;50.104;8.074;2023-03-31T03:39:59;95954.38;;;7.83;100.00
74708;BME280;63360;50.104;8.074;2023-03-31T03:42:25;95964.75;;;7.83;100.00
74708;BME280;63360;50.104;8.074;2023-03-31T03:44:52;95972.69;;;7.78;100.00
74708;BME280;63360;50.104;8.074;2023-03-31T03:47:18;95963.41;;;7.77;100.00
74708;BME280;63360;50.104;8.074;2023-03-31T03:49:44;95945.94;;;7.74;100.00
74708;BME280;63360;50.104;8.074;2023-03-31T03:52:11;95945.19;;;7.74;100.00
74708;BME280;63360;50.104;8.074;2023-03-31T03:54:37;95936.72;;;7.65;100.00
74708;BME280;63360;50.104;8.074;2023-03-31T03:57:04;95939.09;;;7.70;100.00
74708;BME280;63360;50.104;8.074;2023-03-31T03:59:30;95934.13;;;7.65;100.00
74708;BME280;63360;50.104;8.074;2023-03-31T04:01:56;95937.78;;;7.64;100.00
74708;BME280;63360;50.104;8.074;2023-03-31T04:04:23;95924.09;;;7.63;100.00
74708;BME280;63360;50.104;8.074;2023-03-31T04:06:49;95929.31;;;7.55;100.00
74708;BME280;63360;50.104;8.074;2023-03-31T04:09:16;95931.72;;;7.60;100.00
74708;BME280;63360;50.104;8.074;2023-03-31T04:11:42;95915.75;;;7.58;100.00
74708;BME280;63360;50.104;8.074;2023-03-31T04:14:08;95921.38;;;7.60;100.00
74708;BME280;63360;50.104;8.074;2023-03-31T04:16:35;95916.38;;;7.55;100.00
74708;BME280;63360;50.104;8.074;2023-03-31T04:19:01;95915.00;;;7.57;100.00
74708;BME280;63360;50.104;8.074;2023-03-31T04:21:30;95918.16;;;7.63;100.00
74708;BME280;63360;50.104;8.074;2023-03-31T04:24:00;95902.69;;;7.54;100.00
74708;BME280;63360;50.104;8.074;2023-03-31T04:26:31;95910.41;;;7.63;100.00
74708;BME280;63360;50.104;8.074;2023-03-31T04:29:12;95890.75;;;7.62;100.00
74708;BME280;63360;50.104;8.074;2023-03-31T04:31:39;95887.97;;;7.67;100.00
74708;BME280;63360;50.104;8.074;2023-03-31T04:34:11;95882.16;;;7.70;100.00
74708;BME280;63360;50.104;8.074;2023-03-31T04:36:44;95876.56;;;7.68;100.00
74708;BME280;63360;50.104;8.074;2023-03-31T04:39:18;95865.00;;;7.65;100.00
74708;BME280;63360;50.104;8.074;2023-03-31T04:41:57;95861.53;;;7.61;100.00
74708;BME280;63360;50.104;8.074;2023-03-31T04:44:23;95865.00;;;7.65;100.00
74708;BME280;63360;50.104;8.074;2023-03-31T04:46:50;95864.38;;;7.68;100.00
74708;BME280;63360;50.104;8.074;2023-03-31T04:49:16;95880.34;;;7.70;100.00
74708;BME280;63360;50.104;8.074;2023-03-31T04:51:43;95874.78;;;7.80;100.00
74708;BME280;63360;50.104;8.074;2023-03-31T04:54:10;95863.13;;;7.74;100.00
74708;BME280;63360;50.104;8.074;2023-03-31T04:56:36;95862.72;;;7.64;100.00
74708;BME280;63360;50.104;8.074;2023-03-31T04:59:03;95860.34;;;7.59;100.00
74708;BME280;63360;50.104;8.074;2023-03-31T05:01:30;95858.84;;;7.58;100.00
74708;BME280;63360;50.104;8.074;2023-03-31T05:04:03;95860.13;;;7.64;100.00
74708;BME280;63360;50.104;8.074;2023-03-31T05:06:29;95853.53;;;7.54;100.00
74708;BME280;63360;50.104;8.074;2023-03-31T05:08:56;95844.13;;;7.50;100.00
74708;BME280;63360;50.104;8.074;2023-03-31T05:11:22;95861.22;;;7.63;100.00
74708;BME280;63360;50.104;8.074;2023-03-31T05:13:49;95851.84;;;7.58;100.00
74708;BME280;63360;50.104;8.074;2023-03-31T05:16:15;95863.38;;;7.61;100.00
74708;BME280;63360;50.104;8.074;2023-03-31T05:18:43;95850.69;;;7.68;100.00
74708;BME280;63360;50.104;8.074;2023-03-31T05:21:15;95830.56;;;7.53;100.00
74708;BME280;63360;50.104;8.074;2023-03-31T05:23:43;95841.16;;;7.60;100.00
74708;BME280;63360;50.104;8.074;2023-03-31T05:26:10;95839.97;;;7.57;100.00
74708;BME280;63360;50.104;8.074;2023-03-31T05:28:37;95843.13;;;7.63;100.00
74708;BME280;63360;50.104;8.074;2023-03-31T05:31:04;95821.28;;;7.52;100.00
74708;BME280;63360;50.104;8.074;2023-03-31T05:33:31;95823.91;;;7.64;100.00
74708;BME280;63360;50.104;8.074;2023-03-31T05:35:58;95811.44;;;7.66;100.00
74708;BME280;63360;50.104;8.074;2023-03-31T05:38:27;95792.19;;;7.55;100.00
74708;BME280;63360;50.104;8.074;2023-03-31T05:40:56;95778.69;;;7.49;100.00
74708;BME280;63360;50.104;8.074;2023-03-31T05:43:22;95762.97;;;7.54;100.00
74708;BME280;63360;50.104;8.074;2023-03-31T05:45:49;95771.38;;;7.51;100.00
74708;BME280;63360;50.104;8.074;2023-03-31T05:48:15;95761.66;;;7.48;100.00
74708;BME280;63360;50.104;8.074;2023-03-31T05:50:42;95750.03;;;7.54;100.00
74708;BME280;63360;50.104;8.074;2023-03-31T05:53:09;95744.63;;;7.47;100.00
74708;BME280;63360;50.104;8.074;2023-03-31T05:55:36;95736.78;;;7.56;100.00
74708;BME280;63360;50.104;8.074;2023-03-31T05:58:02;95722.22;;;7.51;100.00
74708;BME280;63360;50.104;8.074;2023-03-31T06:00:29;95722.34;;;7.55;100.00
74708;BME280;63360;50.104;8.074;2023-03-31T06:02:56;95720.38;;;7.52;100.00
74708;BME280;63360;50.104;8.074;2023-03-31T06:05:25;95705.19;;;7.50;100.00
74708;BME280;63360;50.104;8.074;2023-03-31T06:07:56;95705.84;;;7.59;100.00
74708;BME280;63360;50.104;8.074;2023-03-31T06:10:22;95706.03;;;7.54;100.00
74708;BME280;63360;50.104;8.074;2023-03-31T06:12:48;95683.53;;;7.55;100.00
74708;BME280;63360;50.104;8.074;2023-03-31T06:15:15;95690.75;;;7.61;100.00
74708;BME280;63360;50.104;8.074;2023-03-31T06:17:42;95690.75;;;7.61;100.00
74708;BME280;63360;50.104;8.074;2023-03-31T06:20:09;95671.22;;;7.52;100.00
74708;BME280;63360;50.104;8.074;2023-03-31T06:22:49;95675.13;;;7.58;100.00
74708;BME280;63360;50.104;8.074;2023-03-31T06:25:16;95664.66;;;7.54;100.00
74708;BME280;63360;50.104;8.074;2023-03-31T06:27:42;95665.53;;;7.58;100.00
74708;BME280;63360;50.104;8.074;2023-03-31T06:30:09;95670.88;;;7.53;100.00
74708;BME280;63360;50.104;8.074;2023-03-31T06:32:35;95657.53;;;7.51;100.00
74708;BME280;63360;50.104;8.074;2023-03-31T06:35:02;95648.56;;;7.49;100.00
74708;BME280;63360;50.104;8.074;2023-03-31T06:37:28;95655.81;;;7.55;100.00
74708;BME280;63360;50.104;8.074;2023-03-31T06:39:55;95654.31;;;7.54;100.00
74708;BME280;63360;50.104;8.074;2023-03-31T06:42:21;95653.44;;;7.50;100.00
74708;BME280;63360;50.104;8.074;2023-03-31T06:44:47;95664.00;;;7.57;100.00
74708;BME280;63360;50.104;8.074;2023-03-31T06:47:14;95678.34;;;7.67;100.00
74708;BME280;63360;50.104;8.074;2023-03-31T06:49:40;95713.22;;;7.81;100.00
74708;BME280;63360;50.104;8.074;2023-03-31T06:52:07;95725.53;;;7.84;100.00
74708;BME280;63360;50.104;8.074;2023-03-31T06:54:33;95721.41;;;7.71;100.00
74708;BME280;63360;50.104;8.074;2023-03-31T06:56:59;95713.53;;;7.80;100.00
74708;BME280;63360;50.104;8.074;2023-03-31T06:59:26;95669.41;;;7.64;100.00
74708;BME280;63360;50.104;8.074;2023-03-31T07:01:52;95676.31;;;7.72;100.00
74708;BME280;63360;50.104;8.074;2023-03-31T07:04:19;95657.88;;;7.62;100.00
74708;BME280;63360;50.104;8.074;2023-03-31T07:06:45;95674.69;;;7.68;100.00
74708;BME280;63360;50.104;8.074;2023-03-31T07:09:12;95662.53;;;7.68;100.00
74708;BME280;63360;50.104;8.074;2023-03-31T07:11:38;95643.75;;;7.59;100.00
74708;BME280;63360;50.104;8.074;2023-03-31T07:14:05;95650.34;;;7.69;100.00
74708;BME280;63360;50.104;8.074;2023-03-31T07:16:31;95637.59;;;7.64;100.00
74708;BME280;63360;50.104;8.074;2023-03-31T07:18:57;95636.31;;;7.70;100.00
74708;BME280;63360;50.104;8.074;2023-03-31T07:21:25;95620.91;;;7.73;100.00
74708;BME280;63360;50.104;8.074;2023-03-31T07:23:51;95623.16;;;7.75;100.00
74708;BME280;63360;50.104;8.074;2023-03-31T07:26:17;95636.63;;;7.80;100.00
74708;BME280;63360;50.104;8.074;2023-03-31T07:28:44;95629.28;;;7.82;100.00
74708;BME280;63360;50.104;8.074;2023-03-31T07:31:12;95621.00;;;7.89;100.00
74708;BME280;63360;50.104;8.074;2023-03-31T07:33:39;95600.94;;;7.86;100.00
74708;BME280;63360;50.104;8.074;2023-03-31T07:36:06;95592.84;;;8.00;100.00
74708;BME280;63360;50.104;8.074;2023-03-31T07:38:41;95591.63;;;8.09;100.00
74708;BME280;63360;50.104;8.074;2023-03-31T07:41:12;95589.88;;;8.25;100.00
74708;BME280;63360;50.104;8.074;2023-03-31T07:43:39;95595.19;;;8.29;100.00
74708;BME280;63360;50.104;8.074;2023-03-31T07:46:06;95605.31;;;8.34;100.00
74708;BME280;63360;50.104;8.074;2023-03-31T07:48:33;95606.47;;;8.48;100.00
74708;BME280;63360;50.104;8.074;2023-03-31T07:51:00;95599.19;;;8.66;100.00
74708;BME280;63360;50.104;8.074;2023-03-31T07:53:26;95603.75;;;9.28;100.00
74708;BME280;63360;50.104;8.074;2023-03-31T07:55:53;95600.31;;;9.87;100.00
74708;BME280;63360;50.104;8.074;2023-03-31T07:58:19;95596.06;;;10.29;100.00
74708;BME280;63360;50.104;8.074;2023-03-31T08:00:46;95613.66;;;10.55;100.00
74708;BME280;63360;50.104;8.074;2023-03-31T08:03:13;95614.25;;;10.67;100.00
74708;BME280;63360;50.104;8.074;2023-03-31T08:05:39;95615.50;;;10.92;100.00
74708;BME280;63360;50.104;8.074;2023-03-31T08:08:06;95619.22;;;10.72;100.00
74708;BME280;63360;50.104;8.074;2023-03-31T08:10:32;95599.28;;;10.61;100.00
74708;BME280;63360;50.104;8.074;2023-03-31T08:12:59;95600.72;;;10.39;99.10
74708;BME280;63360;50.104;8.074;2023-03-31T08:15:25;95601.19;;;10.10;100.00
74708;BME280;63360;50.104;8.074;2023-03-31T08:17:51;95598.78;;;9.86;100.00
74708;BME280;63360;50.104;8.074;2023-03-31T08:20:18;95589.84;;;9.67;100.00
74708;BME280;63360;50.104;8.074;2023-03-31T08:22:44;95585.44;;;9.52;100.00
74708;BME280;63360;50.104;8.074;2023-03-31T08:25:11;95594.22;;;9.48;100.00
74708;BME280;63360;50.104;8.074;2023-03-31T08:27:39;95586.75;;;9.46;100.00
74708;BME280;63360;50.104;8.074;2023-03-31T08:30:07;95580.16;;;9.33;100.00
74708;BME280;63360;50.104;8.074;2023-03-31T08:32:34;95579.47;;;9.21;100.00
74708;BME280;63360;50.104;8.074;2023-03-31T08:35:01;95580.22;;;9.21;100.00
74708;BME280;63360;50.104;8.074;2023-03-31T08:37:27;95578.53;;;9.13;100.00
74708;BME280;63360;50.104;8.074;2023-03-31T08:39:54;95594.59;;;9.19;100.00
74708;BME280;63360;50.104;8.074;2023-03-31T08:47:46;95574.59;;;9.03;100.00
74708;BME280;63360;50.104;8.074;2023-03-31T08:50:17;95573.59;;;9.08;100.00
74708;BME280;63360;50.104;8.074;2023-03-31T08:52:50;95568.00;;;9.37;100.00
74708;BME280;63360;50.104;8.074;2023-03-31T08:55:26;95575.72;;;10.00;100.00
74708;BME280;63360;50.104;8.074;2023-03-31T08:58:02;95568.50;;;10.63;100.00
74708;BME280;63360;50.104;8.074;2023-03-31T09:00:45;95551.16;;;10.89;100.00
74708;BME280;63360;50.104;8.074;2023-03-31T09:06:15;95556.00;;;11.59;98.63
74708;BME280;63360;50.104;8.074;2023-03-31T09:08:43;95547.69;;;11.73;96.37
74708;BME280;63360;50.104;8.074;2023-03-31T09:11:23;95554.09;;;11.79;91.41
74708;BME280;63360;50.104;8.074;2023-03-31T09:16:32;95553.84;;;11.38;97.95
74708;BME280;63360;50.104;8.074;2023-03-31T09:19:01;95562.00;;;11.63;91.60
74708;BME280;63360;50.104;8.074;2023-03-31T09:21:31;95553.31;;;11.52;92.13
74708;BME280;63360;50.104;8.074;2023-03-31T09:24:23;95563.25;;;11.24;95.70
74708;BME280;63360;50.104;8.074;2023-03-31T09:26:57;95568.94;;;11.07;94.97
74708;BME280;63360;50.104;8.074;2023-03-31T09:29:52;95553.69;;;10.86;96.62
74708;BME280;63360;50.104;8.074;2023-03-31T09:32:22;95542.59;;;10.70;97.81
74708;BME280;63360;50.104;8.074;2023-03-31T09:34:52;95541.72;;;10.62;99.74
74708;BME280;63360;50.104;8.074;2023-03-31T09:37:24;95542.41;;;10.59;100.00
74708;BME280;63360;50.104;8.074;2023-03-31T09:39:52;95523.97;;;10.45;100.00
74708;BME280;63360;50.104;8.074;2023-03-31T09:42:18;95533.69;;;10.48;100.00
74708;BME280;63360;50.104;8.074;2023-03-31T09:44:46;95533.88;;;10.40;100.00
74708;BME280;63360;50.104;8.074;2023-03-31T09:47:39;95541.31;;;10.41;100.00
74708;BME280;63360;50.104;8.074;2023-03-31T09:50:09;95533.19;;;10.23;100.00
74708;BME280;63360;50.104;8.074;2023-03-31T09:52:42;95522.00;;;10.04;100.00
74708;BME280;63360;50.104;8.074;2023-03-31T09:55:24;95536.41;;;10.01;100.00
74708;BME280;63360;50.104;8.074;2023-03-31T09:58:06;95540.84;;;9.82;100.00
74708;BME280;63360;50.104;8.074;2023-03-31T10:00:33;95540.63;;;9.55;100.00
74708;BME280;63360;50.104;8.074;2023-03-31T10:03:02;95537.72;;;9.41;100.00
74708;BME280;63360;50.104;8.074;2023-03-31T10:05:37;95534.69;;;9.24;100.00
74708;BME280;63360;50.104;8.074;2023-03-31T10:08:17;95528.69;;;9.20;99.45
74708;BME280;63360;50.104;8.074;2023-03-31T10:10:56;95536.47;;;9.04;100.00
74708;BME280;63360;50.104;8.074;2023-03-31T10:16:13;95532.22;;;8.84;99.26
74708;BME280;63360;50.104;8.074;2023-03-31T10:18:46;95539.28;;;8.83;97.55
74708;BME280;63360;50.104;8.074;2023-03-31T10:21:26;95529.88;;;8.79;98.09
74708;BME280;63360;50.104;8.074;2023-03-31T10:23:53;95531.97;;;8.73;99.14
74708;BME280;63360;50.104;8.074;2023-03-31T10:26:26;95525.38;;;8.76;97.61
74708;BME280;63360;50.104;8.074;2023-03-31T10:28:53;95512.19;;;8.81;98.73
74708;BME280;63360;50.104;8.074;2023-03-31T10:31:25;95514.53;;;8.86;99.37
74708;BME280;63360;50.104;8.074;2023-03-31T10:33:52;95515.19;;;8.98;100.00
74708;BME280;63360;50.104;8.074;2023-03-31T10:36:26;95509.50;;;9.08;100.00
74708;BME280;63360;50.104;8.074;2023-03-31T10:38:54;95499.06;;;9.21;100.00
74708;BME280;63360;50.104;8.074;2023-03-31T10:41:24;95484.56;;;9.35;100.00
74708;BME280;63360;50.104;8.074;2023-03-31T10:43:53;95494.28;;;9.73;97.37
74708;BME280;63360;50.104;8.074;2023-03-31T10:46:20;95483.63;;;9.78;98.13
74708;BME280;63360;50.104;8.074;2023-03-31T10:51:57;95478.94;;;10.03;94.50
74708;BME280;63360;50.104;8.074;2023-03-31T10:54:24;95478.00;;;10.11;96.30
74708;BME280;63360;50.104;8.074;2023-03-31T10:56:54;95477.88;;;10.23;94.75
74708;BME280;63360;50.104;8.074;2023-03-31T10:59:53;95472.78;;;10.30;95.72
74708;BME280;63360;50.104;8.074;2023-03-31T11:02:57;95478.72;;;10.27;96.59
74708;BME280;63360;50.104;8.074;2023-03-31T11:08:24;95476.63;;;10.36;93.77
74708;BME280;63360;50.104;8.074;2023-03-31T11:17:12;95469.53;;;10.75;90.87
74708;BME280;63360;50.104;8.074;2023-03-31T11:19:59;95467.16;;;10.89;89.64
74708;BME280;63360;50.104;8.074;2023-03-31T11:25:18;95456.34;;;11.10;87.19
74708;BME280;63360;50.104;8.074;2023-03-31T11:28:00;95478.47;;;11.23;89.41
74708;BME280;63360;50.104;8.074;2023-03-31T11:30:37;95466.31;;;11.30;85.31
74708;BME280;63360;50.104;8.074;2023-03-31T11:36:19;95476.72;;;11.30;83.57
74708;BME280;63360;50.104;8.074;2023-03-31T11:42:01;95478.22;;;11.31;83.16
74708;BME280;63360;50.104;8.074;2023-03-31T11:44:37;95456.44;;;11.17;84.58
74708;BME280;63360;50.104;8.074;2023-03-31T11:47:08;95460.06;;;11.35;83.37
74708;BME280;63360;50.104;8.074;2023-03-31T11:49:43;95457.50;;;11.38;83.38
74708;BME280;63360;50.104;8.074;2023-03-31T11:52:17;95457.91;;;11.40;80.06
74708;BME280;63360;50.104;8.074;2023-03-31T11:57:43;95470.56;;;11.16;83.12
74708;BME280;63360;50.104;8.074;2023-03-31T12:00:20;95454.75;;;11.02;85.78
74708;BME280;63360;50.104;8.074;2023-03-31T12:06:02;95451.22;;;10.90;81.39
74708;BME280;63360;50.104;8.074;2023-03-31T12:08:35;95440.97;;;10.78;85.62
74708;BME280;63360;50.104;8.074;2023-03-31T12:11:08;95444.72;;;10.81;83.51
74708;BME280;63360;50.104;8.074;2023-03-31T12:13:47;95438.91;;;10.87;83.74
74708;BME280;63360;50.104;8.074;2023-03-31T12:16:22;95444.44;;;11.09;83.40
74708;BME280;63360;50.104;8.074;2023-03-31T12:18:59;95436.41;;;11.21;83.01
74708;BME280;63360;50.104;8.074;2023-03-31T12:21:28;95432.13;;;11.32;81.05
74708;BME280;63360;50.104;8.074;2023-03-31T12:23:57;95430.16;;;11.51;82.19
74708;BME280;63360;50.104;8.074;2023-03-31T12:26:45;95412.78;;;11.59;81.42
74708;BME280;63360;50.104;8.074;2023-03-31T12:29:38;95419.66;;;11.71;80.06
74708;BME280;63360;50.104;8.074;2023-03-31T12:32:13;95407.25;;;11.64;79.82
74708;BME280;63360;50.104;8.074;2023-03-31T12:34:55;95424.66;;;11.56;79.19
74708;BME280;63360;50.104;8.074;2023-03-31T12:37:39;95436.28;;;11.63;80.71
74708;BME280;63360;50.104;8.074;2023-03-31T12:43:18;95448.25;;;11.41;82.52
74708;BME280;63360;50.104;8.074;2023-03-31T12:48:43;95434.31;;;10.81;88.38
74708;BME280;63360;50.104;8.074;2023-03-31T12:51:19;95445.97;;;10.64;90.31
74708;BME280;63360;50.104;8.074;2023-03-31T12:54:39;95426.63;;;10.43;90.89
74708;BME280;63360;50.104;8.074;2023-03-31T12:57:01;95428.41;;;10.39;93.84
74708;BME280;63360;50.104;8.074;2023-03-31T12:59:35;95416.63;;;10.45;99.42
74708;BME280;63360;50.104;8.074;2023-03-31T13:04:36;95399.59;;;10.70;100.00
74708;BME280;63360;50.104;8.074;2023-03-31T13:07:04;95396.16;;;10.88;100.00
74708;BME280;63360;50.104;8.074;2023-03-31T13:10:43;95402.09;;;11.12;96.88
74708;BME280;63360;50.104;8.074;2023-03-31T13:13:05;95393.28;;;11.20;92.92
74708;BME280;63360;50.104;8.074;2023-03-31T13:15:38;95388.13;;;11.23;94.14
74708;BME280;63360;50.104;8.074;2023-03-31T13:18:06;95396.03;;;11.30;90.14
74708;BME280;63360;50.104;8.074;2023-03-31T13:20:39;95400.13;;;11.31;90.19
74708;BME280;63360;50.104;8.074;2023-03-31T13:23:20;95392.75;;;11.33;88.93
74708;BME280;63360;50.104;8.074;2023-03-31T13:25:52;95395.09;;;11.16;89.08
74708;BME280;63360;50.104;8.074;2023-03-31T13:33:50;95382.81;;;10.90;93.97
74708;BME280;63360;50.104;8.074;2023-03-31T13:36:36;95378.63;;;10.82;99.42
74708;BME280;63360;50.104;8.074;2023-03-31T13:42:15;95383.75;;;11.01;95.28
74708;BME280;63360;50.104;8.074;2023-03-31T13:56:45;95358.97;;;11.40;85.63
74708;BME280;63360;50.104;8.074;2023-03-31T13:59:33;95371.81;;;11.56;84.10
74708;BME280;63360;50.104;8.074;2023-03-31T14:05:03;95361.13;;;11.65;81.17
74708;BME280;63360;50.104;8.074;2023-03-31T14:07:45;95355.22;;;11.68;81.22
74708;BME280;63360;50.104;8.074;2023-03-31T14:10:36;95354.63;;;11.78;82.80
74708;BME280;63360;50.104;8.074;2023-03-31T14:13:04;95351.31;;;11.81;80.23
74708;BME280;63360;50.104;8.074;2023-03-31T14:15:31;95352.06;;;11.81;81.78
74708;BME280;63360;50.104;8.074;2023-03-31T14:17:59;95344.69;;;11.87;80.01
74708;BME280;63360;50.104;8.074;2023-03-31T14:20:38;95348.94;;;12.02;79.24
74708;BME280;63360;50.104;8.074;2023-03-31T14:25:52;95345.94;;;12.00;73.49
74708;BME280;63360;50.104;8.074;2023-03-31T14:34:11;95371.78;;;11.82;74.74
74708;BME280;63360;50.104;8.074;2023-03-31T14:39:20;95371.50;;;11.31;74.87
74708;BME280;63360;50.104;8.074;2023-03-31T14:41:52;95379.16;;;11.21;76.57
74708;BME280;63360;50.104;8.074;2023-03-31T14:44:19;95381.88;;;11.28;78.41
74708;BME280;63360;50.104;8.074;2023-03-31T14:46:45;95371.47;;;11.28;79.88
74708;BME280;63360;50.104;8.074;2023-03-31T14:49:27;95374.16;;;11.35;79.87
74708;BME280;63360;50.104;8.074;2023-03-31T14:51:59;95358.47;;;11.31;78.19
74708;BME280;63360;50.104;8.074;2023-03-31T14:54:26;95376.25;;;11.26;79.62
74708;BME280;63360;50.104;8.074;2023-03-31T14:56:54;95385.25;;;11.32;78.38
74708;BME280;63360;50.104;8.074;2023-03-31T14:59:34;95375.47;;;11.22;76.15
74708;BME280;63360;50.104;8.074;2023-03-31T15:02:03;95368.91;;;11.05;76.35
74708;BME280;63360;50.104;8.074;2023-03-31T15:04:36;95359.56;;;11.01;77.54
74708;BME280;63360;50.104;8.074;2023-03-31T15:07:10;95371.13;;;11.03;76.37
74708;BME280;63360;50.104;8.074;2023-03-31T15:09:37;95380.00;;;11.02;76.67
74708;BME280;63360;50.104;8.074;2023-03-31T15:12:11;95384.72;;;10.93;81.19
74708;BME280;63360;50.104;8.074;2023-03-31T15:14:46;95377.31;;;10.95;78.33
74708;BME280;63360;50.104;8.074;2023-03-31T15:17:41;95375.50;;;10.99;78.41
74708;BME280;63360;50.104;8.074;2023-03-31T15:22:50;95364.84;;;10.81;81.67
74708;BME280;63360;50.104;8.074;2023-03-31T15:25:16;95366.53;;;10.93;77.72
74708;BME280;63360;50.104;8.074;2023-03-31T15:27:47;95361.63;;;10.88;78.80